Time;durP1;ratioP1;P1;durP2;ratioP2;P2;SDS_P1;SDS_P2;PMS_P1;PMS_P2;Temp;Humidity;BMP_temperature;BMP_pressure;BME280_temperature;BME280_humidity;BME280_pressure;Samples;Min_cycle;Max_cycle;Signal;HPM_P1;HPM_P2
2021/07/22 00:00:24;;;;;;;19.23;11.83;;;21.00;1.00;;;;;;5029345;28;20211;-50
2021/07/22 00:02:51;;;;;;;20.53;12.13;;;21.10;1.00;;;;;;5029006;28;20218;-50
2021/07/22 00:05:18;;;;;;;20.60;11.90;;;20.90;1.00;;;;;;5032999;28;20208;-50
2021/07/22 00:07:46;;;;;;;18.97;11.43;;;21.10;1.00;;;;;;5030762;28;20236;-50
2021/07/22 00:10:14;;;;;;;21.03;11.60;;;20.90;1.00;;;;;;5036893;28;20239;-50
2021/07/22 00:12:41;;;;;;;17.70;12.07;;;20.70;1.00;;;;;;5033396;28;20341;-50
2021/07/22 00:15:09;;;;;;;18.93;11.33;;;20.70;1.00;;;;;;5036770;28;20676;-50
2021/07/22 00:17:36;;;;;;;21.33;11.87;;;20.60;1.00;;;;;;5032627;28;20226;-50
2021/07/22 00:20:05;;;;;;;15.10;10.80;;;20.70;1.00;;;;;;5032776;28;20760;-50
2021/07/22 00:22:38;;;;;;;19.63;12.20;;;20.60;1.00;;;;;;5029906;28;20213;-50
2021/07/22 00:25:06;;;;;;;18.83;11.70;;;20.60;1.00;;;;;;5028794;28;20290;-50
2021/07/22 00:27:33;;;;;;;19.77;11.57;;;20.60;1.00;;;;;;5031721;28;20696;-50
2021/07/22 00:30:00;;;;;;;19.10;12.07;;;20.60;1.00;;;;;;5028435;28;20581;-50
2021/07/22 00:32:27;;;;;;;17.13;11.47;;;20.70;1.00;;;;;;5025404;28;20242;-50
2021/07/22 00:34:53;;;;;;;17.90;11.90;;;20.70;1.00;;;;;;5028312;28;20489;-50
2021/07/22 00:37:20;;;;;;;18.93;11.47;;;20.60;1.00;;;;;;5028398;28;20262;-50
2021/07/22 00:39:47;;;;;;;20.07;12.83;;;20.60;1.00;;;;;;5028467;28;20239;-50
2021/07/22 00:42:14;;;;;;;21.57;12.40;;;20.50;35.00;;;;;;5030187;28;20358;-50
2021/07/22 00:44:41;;;;;;;20.67;12.33;;;20.40;61.30;;;;;;5026014;28;20211;-50
2021/07/22 00:47:07;;;;;;;17.23;11.17;;;20.40;92.40;;;;;;5028825;28;20523;-51
2021/07/22 00:49:34;;;;;;;22.50;11.80;;;20.40;42.90;;;;;;5023785;28;20204;-50
2021/07/22 00:52:01;;;;;;;19.77;12.33;;;20.30;99.00;;;;;;5030825;28;20208;-50
2021/07/22 00:54:28;;;;;;;22.30;13.17;;;20.30;94.80;;;;;;5025735;28;20261;-50
2021/07/22 00:56:54;;;;;;;20.60;11.93;;;20.30;99.90;;;;;;5031151;28;20322;-50
2021/07/22 00:59:21;;;;;;;22.43;12.27;;;20.40;82.40;;;;;;5029001;28;20207;-50
2021/07/22 01:01:48;;;;;;;21.33;12.57;;;20.40;98.70;;;;;;5024010;28;20392;-50
2021/07/22 01:04:15;;;;;;;18.73;11.53;;;20.40;57.70;;;;;;5025752;28;20575;-50
2021/07/22 01:06:42;;;;;;;18.40;12.27;;;20.40;96.70;;;;;;5030607;28;20416;-50
2021/07/22 01:09:09;;;;;;;21.77;11.80;;;20.50;60.70;;;;;;5029754;28;20211;-50
2021/07/22 01:11:36;;;;;;;19.43;11.70;;;20.50;9.70;;;;;;5026756;28;20202;-50
2021/07/22 01:14:02;;;;;;;19.10;12.27;;;20.40;85.30;;;;;;5029315;28;20201;-50
2021/07/22 01:16:30;;;;;;;20.73;12.03;;;20.40;86.60;;;;;;5027109;28;20209;-50
2021/07/22 01:18:57;;;;;;;20.20;12.30;;;20.40;91.80;;;;;;5028165;28;20293;-50
2021/07/22 01:21:24;;;;;;;19.70;12.63;;;20.30;92.70;;;;;;5027332;28;20204;-50
2021/07/22 01:23:51;;;;;;;18.70;11.70;;;20.20;99.90;;;;;;5028332;28;20643;-50
2021/07/22 01:26:18;;;;;;;22.20;12.33;;;20.30;99.90;;;;;;5030462;28;20313;-50
2021/07/22 01:28:47;;;;;;;22.53;12.80;;;20.20;99.90;;;;;;5029179;28;20202;-50
2021/07/22 01:31:13;;;;;;;20.90;11.87;;;20.20;99.90;;;;;;5025505;28;20941;-50
2021/07/22 01:33:42;;;;;;;20.87;12.63;;;20.20;99.90;;;;;;5026913;28;20262;-50
2021/07/22 01:36:09;;;;;;;19.33;11.60;;;20.00;99.90;;;;;;5027673;28;20215;-50
2021/07/22 01:38:36;;;;;;;19.10;11.40;;;20.10;99.90;;;;;;5031691;28;20331;-50
2021/07/22 01:41:04;;;;;;;22.13;12.67;;;20.00;99.90;;;;;;5028925;28;20227;-50
2021/07/22 01:43:31;;;;;;;19.23;11.67;;;20.00;99.90;;;;;;5029770;28;20566;-50
2021/07/22 01:45:58;;;;;;;17.80;11.60;;;20.10;99.90;;;;;;5027351;28;20659;-50
2021/07/22 01:48:25;;;;;;;20.23;11.67;;;20.20;99.90;;;;;;5027187;28;20692;-49
2021/07/22 01:50:51;;;;;;;17.80;11.50;;;20.20;99.90;;;;;;5010487;28;20308;-50
2021/07/22 01:53:18;;;;;;;18.30;10.93;;;20.20;99.90;;;;;;5031050;28;20323;-50
2021/07/22 01:55:45;;;;;;;21.37;11.43;;;20.20;99.90;;;;;;5030081;28;20339;-50
2021/07/22 01:58:12;;;;;;;19.60;11.63;;;20.10;99.90;;;;;;5028632;28;20254;-50
2021/07/22 02:00:39;;;;;;;17.03;11.17;;;20.10;99.90;;;;;;5014515;28;20318;-50
2021/07/22 02:03:05;;;;;;;18.50;10.67;;;20.00;99.90;;;;;;5026074;28;20272;-50
2021/07/22 02:05:32;;;;;;;22.43;12.33;;;19.90;99.90;;;;;;5031386;28;20577;-50
2021/07/22 02:08:00;;;;;;;20.83;12.17;;;19.80;99.90;;;;;;5029194;28;20253;-50
2021/07/22 02:10:27;;;;;;;17.37;11.27;;;19.80;99.90;;;;;;5031337;28;20357;-50
2021/07/22 02:12:54;;;;;;;19.73;10.77;;;20.00;99.90;;;;;;5027833;28;20765;-50
2021/07/22 02:15:20;;;;;;;20.00;11.60;;;20.00;99.90;;;;;;5029226;28;20232;-50
2021/07/22 02:17:47;;;;;;;19.33;11.37;;;20.10;99.90;;;;;;5024096;28;20218;-50
2021/07/22 02:20:14;;;;;;;20.27;11.13;;;20.10;99.90;;;;;;5010235;28;20265;-50
2021/07/22 02:22:41;;;;;;;21.30;12.20;;;20.10;99.90;;;;;;5029632;28;20658;-50
2021/07/22 02:25:08;;;;;;;16.83;11.07;;;20.00;99.90;;;;;;5028576;28;21130;-50
2021/07/22 02:27:35;;;;;;;18.23;10.90;;;20.00;99.90;;;;;;5032493;28;20307;-50
2021/07/22 02:30:05;;;;;;;18.67;11.10;;;20.00;99.90;;;;;;5042582;28;20231;-50
2021/07/22 02:32:31;;;;;;;18.03;11.10;;;20.00;99.90;;;;;;5030174;28;20216;-50
2021/07/22 02:34:58;;;;;;;16.90;11.47;;;19.80;99.90;;;;;;5026529;28;20662;-50
2021/07/22 02:37:25;;;;;;;16.90;10.73;;;19.80;99.90;;;;;;5031764;28;20224;-50
2021/07/22 02:39:52;;;;;;;16.93;10.67;;;19.90;99.90;;;;;;5027119;28;20235;-50
2021/07/22 02:42:19;;;;;;;16.93;10.53;;;19.90;99.90;;;;;;5028342;28;20209;-50
2021/07/22 02:44:45;;;;;;;18.47;10.90;;;19.80;99.90;;;;;;5031916;28;20864;-50
2021/07/22 02:47:12;;;;;;;17.70;11.03;;;19.80;99.90;;;;;;5036246;28;20300;-50
2021/07/22 02:49:40;;;;;;;18.67;10.03;;;19.90;99.90;;;;;;5030315;28;20611;-50
2021/07/22 02:52:08;;;;;;;18.93;11.57;;;19.90;99.90;;;;;;5029425;28;20319;-50
2021/07/22 02:54:35;;;;;;;21.27;11.73;;;19.60;99.90;;;;;;5030708;28;20277;-50
2021/07/22 02:57:02;;;;;;;18.37;10.50;;;19.50;99.90;;;;;;5036284;28;20240;-50
2021/07/22 02:59:29;;;;;;;16.57;10.43;;;19.50;99.90;;;;;;5034268;28;20224;-50
2021/07/22 03:01:56;;;;;;;19.53;11.13;;;19.60;99.90;;;;;;5032341;28;20234;-50
2021/07/22 03:04:23;;;;;;;19.90;10.50;;;19.40;99.90;;;;;;5037333;28;20680;-50
2021/07/22 03:06:50;;;;;;;17.60;10.67;;;19.30;99.90;;;;;;5028978;28;20233;-50
2021/07/22 03:09:17;;;;;;;19.53;10.97;;;19.40;99.90;;;;;;5035091;28;20212;-50
2021/07/22 03:11:43;;;;;;;15.47;9.97;;;19.40;99.90;;;;;;5031141;28;20673;-50
2021/07/22 03:14:10;;;;;;;18.10;11.07;;;19.30;99.90;;;;;;5033463;28;20297;-50
2021/07/22 03:16:37;;;;;;;17.93;10.93;;;19.20;99.90;;;;;;5029916;28;20202;-50
2021/07/22 03:19:04;;;;;;;18.53;10.07;;;19.20;99.90;;;;;;5031496;28;20220;-50
2021/07/22 03:21:31;;;;;;;15.80;10.20;;;19.10;99.90;;;;;;5029988;28;20205;-50
2021/07/22 03:23:57;;;;;;;15.23;9.57;;;19.20;99.90;;;;;;5029215;28;20197;-50
2021/07/22 03:26:24;;;;;;;16.53;9.27;;;19.10;99.90;;;;;;5029170;28;20254;-50
2021/07/22 03:28:51;;;;;;;15.27;9.10;;;19.20;99.90;;;;;;5033422;28;20296;-50
2021/07/22 03:31:18;;;;;;;16.03;9.80;;;19.20;99.90;;;;;;5035401;28;20291;-50
2021/07/22 03:33:45;;;;;;;16.57;9.73;;;19.30;99.90;;;;;;5032281;28;20204;-50
2021/07/22 03:36:12;;;;;;;15.10;9.63;;;19.20;99.90;;;;;;5027933;28;20586;-50
2021/07/22 03:38:38;;;;;;;17.20;9.87;;;19.00;99.90;;;;;;5034083;28;20294;-50
2021/07/22 03:41:05;;;;;;;14.60;8.77;;;19.10;99.90;;;;;;5033725;28;20291;-50
2021/07/22 03:43:32;;;;;;;18.17;10.07;;;19.10;99.90;;;;;;5031982;28;20238;-50
2021/07/22 03:45:59;;;;;;;18.30;9.67;;;19.00;99.90;;;;;;5033955;28;20242;-50
2021/07/22 03:48:26;;;;;;;16.27;9.63;;;18.90;99.90;;;;;;5034118;28;20287;-50
2021/07/22 03:50:53;;;;;;;16.83;9.47;;;18.90;99.90;;;;;;5053973;28;20227;-50
2021/07/22 03:53:19;;;;;;;16.77;9.87;;;19.00;99.90;;;;;;5029186;28;20676;-50
2021/07/22 03:55:47;;;;;;;17.17;9.97;;;19.00;99.90;;;;;;5034082;28;20912;-50
2021/07/22 03:58:14;;;;;;;17.33;9.67;;;19.00;99.90;;;;;;5035645;28;20207;-50
2021/07/22 04:00:41;;;;;;;17.13;9.50;;;18.90;99.90;;;;;;5026715;28;20236;-50
2021/07/22 04:03:08;;;;;;;16.60;9.87;;;18.90;99.90;;;;;;5033807;28;20210;-50
2021/07/22 04:05:35;;;;;;;16.17;9.33;;;18.80;99.90;;;;;;5029098;28;20217;-50
2021/07/22 04:08:02;;;;;;;13.87;9.00;;;18.80;99.90;;;;;;5034598;28;20252;-50
2021/07/22 04:10:29;;;;;;;17.43;9.70;;;18.80;99.90;;;;;;5029348;28;20241;-50
2021/07/22 04:13:00;;;;;;;16.70;9.57;;;18.90;99.90;;;;;;5032001;28;20778;-50
2021/07/22 04:15:28;;;;;;;13.53;9.37;;;18.80;99.90;;;;;;5027236;28;20705;-50
2021/07/22 04:17:56;;;;;;;17.33;9.63;;;18.90;99.90;;;;;;5029913;28;20284;-50
2021/07/22 04:20:24;;;;;;;16.77;9.63;;;18.80;99.90;;;;;;5032178;28;21473;-50
2021/07/22 04:22:53;;;;;;;16.67;9.03;;;18.70;99.90;;;;;;5026068;28;20213;-50
2021/07/22 04:25:20;;;;;;;15.30;9.57;;;18.70;99.90;;;;;;5030938;28;20670;-50
2021/07/22 04:27:47;;;;;;;16.23;9.03;;;18.70;99.90;;;;;;5030815;28;20263;-50
2021/07/22 04:30:13;;;;;;;20.40;9.23;;;18.70;99.90;;;;;;5035161;28;20214;-50
2021/07/22 04:32:40;;;;;;;18.27;9.10;;;18.70;99.90;;;;;;5031298;28;20338;-50
2021/07/22 04:35:08;;;;;;;16.87;9.63;;;18.80;99.90;;;;;;5031816;28;20203;-50
2021/07/22 04:37:38;;;;;;;17.77;8.73;;;19.00;99.90;;;;;;5033321;28;20292;-50
2021/07/22 04:40:06;;;;;;;16.20;9.70;;;19.00;99.90;;;;;;5031931;28;20639;-50
2021/07/22 04:42:34;;;;;;;17.43;9.37;;;18.80;99.90;;;;;;5028593;28;20693;-50
2021/07/22 04:45:01;;;;;;;16.47;9.47;;;18.80;99.90;;;;;;5029763;28;20213;-50
2021/07/22 04:47:28;;;;;;;15.10;9.43;;;18.90;99.90;;;;;;5029282;28;20228;-50
2021/07/22 04:49:55;;;;;;;18.13;9.43;;;19.00;99.90;;;;;;5033419;28;20243;-50
2021/07/22 04:52:22;;;;;;;16.07;9.03;;;19.10;99.90;;;;;;5034885;28;20211;-50
2021/07/22 04:54:49;;;;;;;15.20;9.43;;;18.90;99.90;;;;;;5029938;28;20400;-50
2021/07/22 04:57:15;;;;;;;18.47;10.27;;;18.90;99.90;;;;;;5029765;28;20304;-50
2021/07/22 04:59:43;;;;;;;14.50;9.40;;;19.00;99.90;;;;;;5030106;28;20210;-50
2021/07/22 05:02:10;;;;;;;16.03;10.23;;;19.00;99.90;;;;;;5026437;28;20285;-50
2021/07/22 05:04:37;;;;;;;19.00;9.50;;;19.10;99.90;;;;;;5027592;28;20675;-50
2021/07/22 05:07:05;;;;;;;18.77;10.30;;;19.10;99.90;;;;;;5034473;28;20226;-50
2021/07/22 05:09:32;;;;;;;20.27;10.67;;;19.00;99.90;;;;;;5031538;28;20274;-50
2021/07/22 05:11:59;;;;;;;13.63;9.30;;;19.10;99.90;;;;;;5046065;28;20242;-50
2021/07/22 05:14:26;;;;;;;20.00;10.57;;;19.10;99.90;;;;;;5029615;28;20246;-50
2021/07/22 05:16:53;;;;;;;16.93;9.93;;;19.00;99.90;;;;;;5028037;28;20210;-50
2021/07/22 05:19:20;;;;;;;14.63;9.80;;;19.00;99.90;;;;;;5029812;28;20291;-50
2021/07/22 05:21:47;;;;;;;16.90;9.53;;;18.90;99.90;;;;;;5028342;28;20247;-50
2021/07/22 05:24:13;;;;;;;16.43;9.83;;;18.80;99.90;;;;;;5023799;28;20290;-50
2021/07/22 05:26:40;;;;;;;15.70;9.20;;;18.70;99.90;;;;;;5032663;28;20232;-50
2021/07/22 05:29:08;;;;;;;14.80;9.93;;;18.90;99.90;;;;;;5028750;28;20279;-50
2021/07/22 05:31:38;;;;;;;15.53;9.97;;;18.90;99.90;;;;;;5028619;28;20674;-50
2021/07/22 05:34:05;;;;;;;18.33;10.17;;;19.00;99.90;;;;;;5034329;28;20202;-50
2021/07/22 05:36:33;;;;;;;14.20;8.90;;;18.90;99.90;;;;;;5033886;28;20213;-50
2021/07/22 05:39:00;;;;;;;15.63;10.07;;;19.10;99.90;;;;;;5034905;28;20262;-49
2021/07/22 05:41:27;;;;;;;17.17;9.73;;;19.00;99.90;;;;;;5033153;28;20629;-51
2021/07/22 05:43:54;;;;;;;17.97;10.13;;;19.00;99.90;;;;;;5030464;28;20313;-49
2021/07/22 05:46:22;;;;;;;16.40;9.53;;;18.90;99.90;;;;;;5028595;28;20208;-49
2021/07/22 05:48:49;;;;;;;22.23;10.73;;;19.00;99.90;;;;;;5028147;28;20633;-50
2021/07/22 05:51:16;;;;;;;16.10;9.77;;;19.20;99.90;;;;;;5026079;28;20206;-50
2021/07/22 05:53:43;;;;;;;18.23;10.53;;;19.00;99.90;;;;;;5027210;28;20261;-50
2021/07/22 05:56:16;;;;;;;17.80;10.60;;;19.20;99.90;;;;;;5025477;28;20261;-50
2021/07/22 05:58:44;;;;;;;14.67;9.70;;;19.10;99.90;;;;;;5033847;28;20233;-50
2021/07/22 06:01:11;;;;;;;17.10;10.70;;;19.20;99.90;;;;;;5023337;28;20713;-49
2021/07/22 06:03:38;;;;;;;15.07;10.13;;;19.40;99.90;;;;;;5028869;28;20230;-49
2021/07/22 06:06:06;;;;;;;15.20;9.53;;;19.30;99.90;;;;;;5037025;28;20202;-49
2021/07/22 06:08:34;;;;;;;14.73;9.77;;;19.30;99.90;;;;;;5036418;28;20547;-50
2021/07/22 06:11:06;;;;;;;21.33;11.50;;;19.20;99.90;;;;;;5035101;28;20588;-50
2021/07/22 06:13:34;;;;;;;20.60;10.57;;;19.10;99.90;;;;;;5026656;28;20201;-49
2021/07/22 06:16:02;;;;;;;17.37;10.03;;;19.10;99.90;;;;;;5032553;28;20678;-50
2021/07/22 06:18:29;;;;;;;19.20;10.70;;;19.00;99.90;;;;;;5029528;28;20291;-49
2021/07/22 06:20:56;;;;;;;17.27;10.20;;;19.10;99.90;;;;;;5032327;28;20378;-49
2021/07/22 06:23:23;;;;;;;19.87;10.50;;;19.20;99.90;;;;;;5029350;28;20202;-50
2021/07/22 06:25:58;;;;;;;18.10;10.30;;;19.40;99.90;;;;;;5032524;28;20197;-50
2021/07/22 06:28:25;;;;;;;16.40;9.50;;;19.40;99.90;;;;;;5030381;28;20336;-50
2021/07/22 06:30:53;;;;;;;20.33;10.80;;;19.50;99.90;;;;;;5036432;28;20611;-50
2021/07/22 06:33:20;;;;;;;16.17;10.77;;;19.50;99.90;;;;;;5031073;28;20764;-50
2021/07/22 06:35:47;;;;;;;15.37;9.40;;;19.60;99.90;;;;;;5034322;28;20209;-49
2021/07/22 06:38:14;;;;;;;18.10;10.00;;;19.80;99.90;;;;;;5014494;28;20355;-50
2021/07/22 06:40:42;;;;;;;13.97;10.03;;;19.90;99.90;;;;;;5040159;28;20596;-50
2021/07/22 06:43:10;;;;;;;16.00;9.50;;;19.80;99.90;;;;;;5033962;28;20297;-50
2021/07/22 06:45:38;;;;;;;16.43;10.93;;;19.90;99.90;;;;;;5020007;28;20203;-50
2021/07/22 06:48:06;;;;;;;15.83;10.30;;;19.90;99.90;;;;;;5028036;28;20321;-49
2021/07/22 06:50:33;;;;;;;17.00;11.30;;;19.90;99.90;;;;;;5037190;28;20314;-49
2021/07/22 06:53:06;;;;;;;15.93;10.70;;;19.90;99.90;;;;;;5041466;28;20281;-50
2021/07/22 06:55:34;;;;;;;21.33;11.37;;;20.00;99.90;;;;;;5032337;28;20307;-50
2021/07/22 06:58:05;;;;;;;17.20;10.30;;;20.00;99.90;;;;;;5028557;28;20643;-50
2021/07/22 07:00:32;;;;;;;20.90;10.57;;;20.20;99.90;;;;;;5034234;28;20301;-50
2021/07/22 07:03:11;;;;;;;15.47;10.30;;;20.40;91.20;;;;;;5022695;28;20299;-50
2021/07/22 07:05:38;;;;;;;17.10;10.37;;;20.50;13.00;;;;;;5033422;28;20608;-51
2021/07/22 07:08:05;;;;;;;17.50;10.10;;;20.50;64.20;;;;;;5029665;28;20645;-51
2021/07/22 07:10:32;;;;;;;15.47;9.67;;;20.70;7.10;;;;;;5035389;28;20256;-51
2021/07/22 07:12:59;;;;;;;17.83;9.93;;;20.50;1.00;;;;;;5032852;28;20283;-51
2021/07/22 07:15:26;;;;;;;16.37;10.50;;;20.50;1.00;;;;;;5032055;28;20212;-51
2021/07/22 07:17:53;;;;;;;17.83;10.17;;;21.00;1.00;;;;;;5040087;28;20282;-51
2021/07/22 07:20:20;;;;;;;15.23;9.77;;;21.10;1.00;;;;;;5042781;28;20204;-51
2021/07/22 07:22:48;;;;;;;18.00;10.27;;;21.10;1.00;;;;;;5032474;28;20307;-51
2021/07/22 07:25:15;;;;;;;15.67;10.57;;;21.10;1.00;;;;;;5031010;28;20408;-51
2021/07/22 07:27:42;;;;;;;18.27;10.80;;;21.00;1.00;;;;;;5036684;28;20653;-51
2021/07/22 07:30:09;;;;;;;22.97;11.30;;;20.80;1.00;;;;;;5027337;28;20339;-51
2021/07/22 07:32:36;;;;;;;18.03;10.93;;;20.40;1.00;;;;;;5030470;28;20309;-51
2021/07/22 07:35:04;;;;;;;18.77;11.07;;;20.70;1.00;;;;;;5035741;28;20289;-50
2021/07/22 07:37:31;;;;;;;19.00;10.30;;;20.80;1.00;;;;;;5034118;28;20264;-51
2021/07/22 07:39:58;;;;;;;16.43;9.83;;;21.30;1.00;;;;;;5044105;28;20354;-50
2021/07/22 07:42:25;;;;;;;17.30;10.60;;;21.30;1.00;;;;;;5045759;28;20324;-51
2021/07/22 07:44:55;;;;;;;15.90;9.83;;;21.10;1.00;;;;;;5043155;28;20269;-51
2021/07/22 07:47:22;;;;;;;18.10;11.20;;;21.10;1.00;;;;;;5045430;28;20620;-51
2021/07/22 07:49:49;;;;;;;18.80;10.97;;;20.70;1.00;;;;;;5044947;28;20300;-51
2021/07/22 07:52:15;;;;;;;23.23;11.63;;;20.80;1.00;;;;;;5041420;28;20550;-50
2021/07/22 07:54:43;;;;;;;17.43;11.17;;;21.20;1.00;;;;;;5040292;28;20275;-51
2021/07/22 07:57:10;;;;;;;19.20;10.30;;;20.90;1.00;;;;;;5041604;28;20200;-50
2021/07/22 07:59:37;;;;;;;16.17;11.47;;;21.20;1.00;;;;;;5043531;28;20658;-50
2021/07/22 08:02:04;;;;;;;21.80;11.03;;;21.90;1.00;;;;;;5043292;28;20656;-50
2021/07/22 08:04:31;;;;;;;16.10;10.63;;;22.30;99.90;;;;;;5040972;28;20208;-50
2021/07/22 08:06:58;;;;;;;18.67;10.23;;;22.10;1.00;;;;;;5044381;28;20283;-50
2021/07/22 08:09:24;;;;;;;16.13;9.50;;;22.30;1.00;;;;;;5043003;28;20342;-50
2021/07/22 08:11:51;;;;;;;16.27;9.90;;;21.60;99.90;;;;;;5044577;28;20294;-51
2021/07/22 08:14:18;;;;;;;14.53;9.60;;;21.80;1.00;;;;;;5020719;28;20212;-50
2021/07/22 08:16:46;;;;;;;16.70;9.07;;;21.90;55.00;;;;;;5043760;28;20242;-51
2021/07/22 08:19:13;;;;;;;14.67;9.87;;;21.70;44.60;;;;;;5029091;28;20227;-51
2021/07/22 08:21:40;;;;;;;14.67;9.23;;;21.80;99.90;;;;;;5044587;28;20200;-50
2021/07/22 08:24:08;;;;;;;17.00;9.00;;;22.40;1.00;;;;;;5042219;28;20550;-50
2021/07/22 08:26:35;;;;;;;10.30;7.17;;;22.10;1.00;;;;;;5042677;28;20674;-50
2021/07/22 08:29:06;;;;;;;12.47;8.00;;;21.70;99.90;;;;;;5045935;28;20233;-51
2021/07/22 08:31:33;;;;;;;11.87;8.23;;;21.80;1.00;;;;;;5041658;28;20220;-50
2021/07/22 08:33:59;;;;;;;13.53;9.47;;;21.80;1.00;;;;;;5043568;28;20290;-50
2021/07/22 08:36:26;;;;;;;11.03;7.80;;;21.60;99.90;;;;;;5041354;28;20678;-50
2021/07/22 08:38:53;;;;;;;10.93;6.73;;;21.80;1.00;;;;;;5042993;28;20247;-50
2021/07/22 08:41:20;;;;;;;12.33;7.77;;;21.50;1.00;;;;;;5043559;28;20308;-50
2021/07/22 08:43:50;;;;;;;13.47;8.20;;;21.30;99.90;;;;;;5039286;28;20619;-50
2021/07/22 08:46:18;;;;;;;12.93;7.67;;;21.20;99.90;;;;;;5043459;28;20557;-50
2021/07/22 08:48:46;;;;;;;13.50;8.00;;;21.40;1.00;;;;;;5043698;28;20212;-50
2021/07/22 08:51:13;;;;;;;13.20;8.07;;;21.90;1.00;;;;;;5043049;28;20199;-50
2021/07/22 08:53:41;;;;;;;15.03;8.27;;;22.00;1.00;;;;;;5033954;28;20210;-50
2021/07/22 08:56:09;;;;;;;12.43;8.30;;;21.80;1.00;;;;;;5034404;28;20266;-50
2021/07/22 08:58:39;;;;;;;13.07;7.70;;;22.00;99.90;;;;;;5043071;28;20519;-50
2021/07/22 09:01:10;;;;;;;12.93;7.87;;;22.30;82.10;;;;;;5040254;28;20236;-50
2021/07/22 09:03:37;;;;;;;15.33;8.67;;;22.50;1.00;;;;;;5041262;28;20503;-50
2021/07/22 09:06:24;;;;;;;11.73;8.77;;;22.20;99.90;;;;;;5042774;28;20666;-50
2021/07/22 09:08:51;;;;;;;12.20;8.57;;;21.70;1.00;;;;;;5042360;28;20250;-50
2021/07/22 09:11:18;;;;;;;12.83;8.90;;;21.90;1.00;;;;;;5043418;28;20214;-50
2021/07/22 09:13:47;;;;;;;14.70;7.97;;;22.10;1.00;;;;;;5031268;28;20216;-50
2021/07/22 09:16:14;;;;;;;11.33;6.30;;;22.30;99.90;;;;;;5026021;28;20203;-50
2021/07/22 09:18:44;;;;;;;9.40;6.13;;;22.40;1.00;;;;;;5029279;28;20219;-50
2021/07/22 09:21:22;;;;;;;8.43;5.70;;;22.80;99.90;;;;;;5036628;28;20342;-51
2021/07/22 09:24:04;;;;;;;10.67;6.93;;;23.40;1.00;;;;;;5034535;28;20207;-51
2021/07/22 09:26:36;;;;;;;9.63;6.73;;;23.50;1.00;;;;;;5039725;28;20212;-51
2021/07/22 09:29:10;;;;;;;12.50;5.90;;;23.60;99.90;;;;;;5036347;28;20219;-51
2021/07/22 09:31:38;;;;;;;11.30;7.03;;;23.40;1.00;;;;;;5035819;28;20288;-51
2021/07/22 09:34:24;;;;;;;10.87;7.33;;;23.20;89.40;;;;;;5033627;28;20647;-51
2021/07/22 09:36:51;;;;;;;10.20;7.10;;;23.00;1.00;;;;;;5037503;28;20200;-51
2021/07/22 09:39:23;;;;;;;10.70;7.03;;;22.80;1.00;;;;;;5035094;28;20325;-50
2021/07/22 09:42:00;;;;;;;8.77;6.00;;;22.70;75.40;;;;;;5035416;28;20290;-51
2021/07/22 09:44:27;;;;;;;10.23;7.27;;;22.90;1.00;;;;;;5033347;28;20196;-51
2021/07/22 09:46:55;;;;;;;7.57;5.87;;;22.30;1.00;;;;;;5024491;28;20936;-51
2021/07/22 09:49:30;;;;;;;10.07;5.37;;;22.00;1.00;;;;;;5036431;28;20315;-50
2021/07/22 09:52:01;;;;;;;9.90;6.00;;;22.50;1.00;;;;;;5033234;28;20544;-51
2021/07/22 09:54:36;;;;;;;7.03;5.40;;;22.80;99.90;;;;;;5029271;28;20295;-50
2021/07/22 09:57:15;;;;;;;9.87;5.33;;;22.70;99.90;;;;;;5024448;28;20199;-51
2021/07/22 09:59:44;;;;;;;11.20;5.40;;;23.20;1.00;;;;;;5029583;28;20652;-51
2021/07/22 10:02:18;;;;;;;6.57;4.77;;;23.70;1.00;;;;;;5028299;28;20687;-51
2021/07/22 10:05:02;;;;;;;7.37;5.47;;;23.70;1.00;;;;;;5034360;28;20283;-50
2021/07/22 10:07:30;;;;;;;6.83;5.20;;;24.10;1.00;;;;;;5033830;28;20312;-50
2021/07/22 10:10:01;;;;;;;5.53;5.00;;;24.40;99.90;;;;;;5034366;28;20527;-50
2021/07/22 10:12:29;;;;;;;5.27;4.23;;;24.10;99.90;;;;;;5032907;28;20594;-50
2021/07/22 10:14:57;;;;;;;8.17;5.20;;;24.30;1.00;;;;;;5034749;28;20568;-50
2021/07/22 10:17:35;;;;;;;7.30;4.53;;;24.20;99.90;;;;;;5032238;28;20251;-50
2021/07/22 10:20:06;;;;;;;10.13;4.87;;;23.70;99.90;;;;;;5035950;28;20254;-50
2021/07/22 10:22:35;;;;;;;7.60;5.23;;;23.40;1.00;;;;;;5034933;28;20208;-50
2021/07/22 10:25:06;;;;;;;6.63;4.82;;;23.40;1.00;;;;;;5030960;28;20517;-48
2021/07/22 10:27:34;;;;;;;6.83;4.63;;;23.70;1.00;;;;;;5034080;28;20232;-49
2021/07/22 10:30:07;;;;;;;8.67;5.13;;;24.00;99.90;;;;;;5028529;28;20247;-49
2021/07/22 10:32:35;;;;;;;5.87;4.37;;;23.50;1.00;;;;;;5032524;28;20291;-49
2021/07/22 10:35:04;;;;;;;6.23;4.30;;;24.40;99.70;;;;;;5033042;28;20283;-49
2021/07/22 10:37:31;;;;;;;5.37;4.47;;;24.90;1.00;;;;;;5036962;28;20201;-49
2021/07/22 10:40:09;;;;;;;5.27;4.30;;;25.40;1.00;;;;;;5033096;28;20211;-49
2021/07/22 10:42:47;;;;;;;6.40;4.00;;;25.40;1.00;;;;;;5034803;28;20598;-49
2021/07/22 10:45:17;;;;;;;8.23;4.20;;;25.50;99.90;;;;;;5034679;28;20639;-49
2021/07/22 10:48:09;;;;;;;5.60;4.40;;;25.00;1.00;;;;;;5034596;28;20220;-49
2021/07/22 10:50:43;;;;;;;7.83;4.73;;;25.40;99.90;;;;;;5036237;28;20805;-49
2021/07/22 10:53:10;;;;;;;5.80;4.00;;;24.60;1.00;;;;;;5021749;28;20727;-49
2021/07/22 10:55:47;;;;;;;5.63;4.43;;;25.70;99.90;;;;;;5027492;28;20544;-49
2021/07/22 10:58:35;;;;;;;6.97;4.70;;;26.00;99.90;;;;;;5026391;28;20205;-49
2021/07/22 11:01:03;;;;;;;6.23;4.33;;;26.70;1.00;;;;;;5026432;28;20235;-49
2021/07/22 11:03:33;;;;;;;6.40;4.80;;;25.70;99.90;;;;;;5030025;28;20563;-49
2021/07/22 11:06:06;;;;;;;5.83;4.30;;;25.20;99.90;;;;;;5029928;28;20495;-49
2021/07/22 11:08:38;;;;;;;5.78;5.18;;;24.60;1.00;;;;;;5022895;28;20459;-51
2021/07/22 11:11:15;;;;;;;6.57;4.63;;;24.40;1.00;;;;;;5029836;28;20273;-51
2021/07/22 11:13:48;;;;;;;7.37;4.53;;;24.40;1.00;;;;;;5029560;28;20309;-50
2021/07/22 11:16:29;;;;;;;5.40;4.83;;;24.20;1.00;;;;;;5024284;28;20207;-51
2021/07/22 11:18:57;;;;;;;5.50;4.37;;;24.10;1.00;;;;;;5029725;28;20643;-51
2021/07/22 11:21:26;;;;;;;5.10;4.00;;;24.20;1.00;;;;;;5028191;28;20313;-51
2021/07/22 11:23:57;;;;;;;5.63;4.53;;;24.00;1.00;;;;;;5028041;28;20343;-50
2021/07/22 11:26:36;;;;;;;7.20;5.13;;;23.90;42.10;;;;;;5028824;28;20370;-51
2021/07/22 11:29:14;;;;;;;7.50;5.07;;;24.00;99.90;;;;;;5028079;28;20263;-51
2021/07/22 11:31:50;;;;;;;5.63;4.20;;;23.40;1.00;;;;;;5026902;28;20328;-51
2021/07/22 11:34:34;;;;;;;6.43;5.07;;;23.60;99.90;;;;;;5027300;28;20199;-50
2021/07/22 11:37:02;;;;;;;6.70;5.03;;;23.70;1.00;;;;;;5030918;28;20274;-50
2021/07/22 11:39:35;;;;;;;10.33;5.70;;;23.80;1.00;;;;;;5029264;28;20553;-50
2021/07/22 11:42:07;;;;;;;7.57;5.17;;;23.80;67.00;;;;;;5030314;28;20224;-50
2021/07/22 11:44:35;;;;;;;6.43;4.37;;;24.40;1.00;;;;;;5036421;28;20740;-51
2021/07/22 11:47:08;;;;;;;7.07;4.73;;;24.70;1.00;;;;;;5032829;28;20675;-50
2021/07/22 11:49:35;;;;;;;7.43;5.20;;;24.70;1.00;;;;;;5034378;28;20316;-51
2021/07/22 11:52:02;;;;;;;8.60;5.00;;;25.10;99.90;;;;;;5034712;28;20615;-50
2021/07/22 11:54:29;;;;;;;6.33;4.27;;;24.90;99.90;;;;;;5034241;28;20210;-50
2021/07/22 11:56:57;;;;;;;7.13;5.50;;;25.20;1.00;;;;;;5033439;28;20391;-50
2021/07/22 11:59:31;;;;;;;5.63;4.20;;;25.50;99.90;;;;;;5029964;28;20297;-50
2021/07/22 12:01:59;;;;;;;5.50;4.47;;;25.30;99.90;;;;;;5035456;28;20295;-51
2021/07/22 12:04:34;;;;;;;4.37;3.70;;;25.10;99.90;;;;;;5030968;28;20320;-50
2021/07/22 12:07:08;;;;;;;5.50;3.90;;;25.20;1.00;;;;;;5031595;28;20304;-51
2021/07/22 12:09:54;;;;;;;5.43;3.97;;;25.50;1.00;;;;;;5032698;28;20313;-50
2021/07/22 12:12:24;;;;;;;7.80;4.03;;;25.80;1.00;;;;;;5028337;28;20504;-51
2021/07/22 12:15:10;;;;;;;5.27;4.40;;;25.80;1.00;;;;;;5026829;28;20903;-50
2021/07/22 12:17:37;;;;;;;5.43;3.90;;;25.60;1.00;;;;;;5021609;28;20893;-50
2021/07/22 12:20:05;;;;;;;4.83;4.17;;;26.10;1.00;;;;;;5015378;28;20864;-51
2021/07/22 12:22:34;;;;;;;6.97;4.00;;;25.90;1.00;;;;;;5026363;28;20250;-50
2021/07/22 12:25:01;;;;;;;5.27;4.20;;;26.00;1.00;;;;;;5029514;28;20215;-63
2021/07/22 12:27:42;;;;;;;5.80;4.27;;;25.90;1.00;;;;;;5023445;28;20208;-51
2021/07/22 12:30:21;;;;;;;6.67;4.40;;;25.30;22.80;;;;;;5029161;28;20315;-50
2021/07/22 12:32:56;;;;;;;5.30;3.63;;;25.40;51.40;;;;;;5029490;28;20378;-50
2021/07/22 12:35:38;;;;;;;5.43;4.30;;;25.50;99.90;;;;;;5028892;28;20290;-51
2021/07/22 12:38:07;;;;;;;7.90;4.30;;;25.60;1.00;;;;;;5026459;28;20702;-51
2021/07/22 12:40:35;;;;;;;4.63;4.20;;;26.20;1.00;;;;;;5023443;28;20574;-51
2021/07/22 12:43:04;;;;;;;7.17;4.17;;;26.60;1.00;;;;;;5035858;28;20214;-50
2021/07/22 12:45:31;;;;;;;3.90;3.50;;;26.50;1.00;;;;;;5031105;28;20226;-51